India Meteorological Department
Airport METARs
Date : 17-01-2020
Sl. # Airport METAR
1 Agartala VEAT 171230Z 00000KT 4500 BR NSC 22/18 Q1015 NOSIG=
2 Ahmedabad VAAH 171230Z 00000KT 3000 FU FEW080 21/11 Q1015 NOSIG=
3 Allahabad VEAB 171200Z 02005KT 2000 BR SCT025 BKN090 17/17 Q1016 BECMG 1500=
4 Amritsar VIAR 171230Z 00000KT 1200 R34/2000 BR SCT100 13/09 Q1016 NOSIG=
5 Aurangabad VAAU 171200Z 27004KT 6000 NSC 25/08 Q1014 NOSIG=
6 Bangalore VOBL 171230Z 10005KT 8000 FEW015 27/09 Q1015 NOSIG=
7 Baroda VABO 171230Z 07003KT 6000 NSC 23/10 Q1014 NOSIG=
8 Bhaunagar VABV 171230Z VRB02KT 3000 FU NSC 21/09 Q1014=
9